NWI501 BIHU-BIKF
Flight info
| Callsign | NWI501 |
|---|---|
| Flight time | 0h 52m |
| Altitude | 24000 |
| Route | RETUR DCT DEVUD DEVUD5N |
| Aircraft | DH8A/M-SDFGR/S |
Departure
| Time | 2026-05-05 23:30 |
|---|---|
| Airport | Húsavík Airport (BIHU) |
Arrival
| Time | 2026-05-06 00:22 |
|---|---|
| Airport | Keflavik International Airport (BIKF) |
| Time | Latitude | Longitude | Altitude | Speed | Heading |
|---|---|---|---|---|---|
| 2026-05-05 23:10 | 65.95573 | -17.41980 | 35 ft | 0 kts | 10° |
| 2026-05-05 23:25 | 65.95574 | -17.41980 | 35 ft | 1 kts | 9° |
| 2026-05-05 23:25 | 65.95588 | -17.42029 | 35 ft | 7 kts | 272° |
| 2026-05-05 23:25 | 65.95596 | -17.42175 | 35 ft | 11 kts | 283° |
| 2026-05-05 23:26 | 65.95607 | -17.42293 | 36 ft | 6 kts | 284° |
| 2026-05-05 23:26 | 65.95598 | -17.42412 | 36 ft | 6 kts | 216° |
| 2026-05-05 23:26 | 65.95544 | -17.42455 | 37 ft | 11 kts | 192° |
| 2026-05-05 23:26 | 65.95464 | -17.42494 | 37 ft | 11 kts | 191° |
| 2026-05-05 23:27 | 65.95360 | -17.42546 | 38 ft | 18 kts | 192° |
| 2026-05-05 23:27 | 65.95240 | -17.42604 | 38 ft | 15 kts | 192° |
| 2026-05-05 23:27 | 65.95115 | -17.42672 | 39 ft | 21 kts | 193° |
| 2026-05-05 23:27 | 65.94956 | -17.42756 | 40 ft | 25 kts | 192° |
| 2026-05-05 23:28 | 65.94777 | -17.42843 | 40 ft | 27 kts | 191° |
| 2026-05-05 23:28 | 65.94608 | -17.42927 | 41 ft | 17 kts | 196° |
| 2026-05-05 23:28 | 65.94562 | -17.42970 | 41 ft | 4 kts | 174° |
| 2026-05-05 23:28 | 65.94563 | -17.42952 | 41 ft | 0 kts | 17° |
| 2026-05-05 23:29 | 65.94602 | -17.42923 | 41 ft | 22 kts | 14° |
| 2026-05-05 23:29 | 65.95007 | -17.42724 | 40 ft | 94 kts | 12° |
| 2026-05-05 23:29 | 65.95708 | -17.42296 | 451 ft | 105 kts | 17° |
| 2026-05-05 23:30 | 65.96417 | -17.41871 | 1038 ft | 109 kts | 7° |
| 2026-05-05 23:30 | 65.97184 | -17.42291 | 1585 ft | 118 kts | 354° |
| 2026-05-05 23:30 | 65.98008 | -17.42613 | 2075 ft | 133 kts | 348° |
| 2026-05-05 23:30 | 65.98779 | -17.44119 | 2536 ft | 155 kts | 306° |
| 2026-05-05 23:31 | 65.98840 | -17.46744 | 3158 ft | 167 kts | 252° |
| 2026-05-05 23:31 | 65.98003 | -17.48809 | 3541 ft | 182 kts | 201° |
| 2026-05-05 23:31 | 65.96771 | -17.49288 | 4107 ft | 178 kts | 181° |
| 2026-05-05 23:31 | 65.95561 | -17.49593 | 4578 ft | 180 kts | 182° |
| 2026-05-05 23:32 | 65.94267 | -17.49951 | 4761 ft | 196 kts | 183° |
| 2026-05-05 23:32 | 65.92907 | -17.50092 | 5179 ft | 195 kts | 181° |
| 2026-05-05 23:32 | 65.91574 | -17.50435 | 5610 ft | 196 kts | 185° |
| 2026-05-05 23:32 | 65.90192 | -17.51044 | 5888 ft | 204 kts | 192° |
| 2026-05-05 23:33 | 65.88823 | -17.51642 | 6387 ft | 199 kts | 183° |
| 2026-05-05 23:33 | 65.87435 | -17.51867 | 6745 ft | 202 kts | 182° |
| 2026-05-05 23:33 | 65.86022 | -17.52268 | 7102 ft | 204 kts | 186° |
| 2026-05-05 23:33 | 65.84622 | -17.52797 | 7488 ft | 205 kts | 188° |
| 2026-05-05 23:34 | 65.83220 | -17.53429 | 7793 ft | 210 kts | 189° |
| 2026-05-05 23:34 | 65.81773 | -17.54307 | 8127 ft | 212 kts | 192° |
| 2026-05-05 23:34 | 65.80323 | -17.55035 | 8393 ft | 216 kts | 188° |
| 2026-05-05 23:34 | 65.78845 | -17.55431 | 8678 ft | 217 kts | 182° |
| 2026-05-05 23:35 | 65.77324 | -17.55772 | 8988 ft | 219 kts | 182° |
| 2026-05-05 23:35 | 65.75801 | -17.56071 | 9261 ft | 222 kts | 183° |
| 2026-05-05 23:35 | 65.74257 | -17.56388 | 9541 ft | 224 kts | 182° |
| 2026-05-05 23:35 | 65.72699 | -17.56689 | 9800 ft | 226 kts | 182° |
| 2026-05-05 23:36 | 65.71137 | -17.57000 | 10067 ft | 228 kts | 182° |
| 2026-05-05 23:36 | 65.69559 | -17.57314 | 10345 ft | 229 kts | 183° |
| 2026-05-05 23:36 | 65.67969 | -17.57693 | 10622 ft | 231 kts | 187° |
| 2026-05-05 23:36 | 65.66379 | -17.58255 | 10893 ft | 232 kts | 186° |
| 2026-05-05 23:37 | 65.64771 | -17.58806 | 11162 ft | 234 kts | 186° |
| 2026-05-05 23:37 | 65.63155 | -17.59353 | 11431 ft | 235 kts | 186° |
| 2026-05-05 23:37 | 65.61551 | -17.59895 | 11691 ft | 236 kts | 186° |
| 2026-05-05 23:37 | 65.59925 | -17.60444 | 11962 ft | 237 kts | 186° |
| 2026-05-05 23:38 | 65.58283 | -17.60998 | 12241 ft | 238 kts | 186° |
| 2026-05-05 23:38 | 65.56622 | -17.61555 | 12515 ft | 239 kts | 186° |
| 2026-05-05 23:38 | 65.54960 | -17.62114 | 12787 ft | 240 kts | 186° |
| 2026-05-05 23:38 | 65.53413 | -17.63409 | 13032 ft | 245 kts | 218° |
| 2026-05-05 23:39 | 65.52226 | -17.66342 | 13336 ft | 244 kts | 225° |
| 2026-05-05 23:39 | 65.51016 | -17.69267 | 13608 ft | 245 kts | 225° |
| 2026-05-05 23:39 | 65.49811 | -17.72158 | 13879 ft | 246 kts | 224° |
| 2026-05-05 23:39 | 65.48589 | -17.75072 | 14167 ft | 247 kts | 224° |
| 2026-05-05 23:40 | 65.47383 | -17.77948 | 14484 ft | 246 kts | 224° |
| 2026-05-05 23:40 | 65.46156 | -17.80865 | 14801 ft | 246 kts | 224° |
| 2026-05-05 23:40 | 65.44946 | -17.83739 | 15111 ft | 245 kts | 224° |
| 2026-05-05 23:40 | 65.43744 | -17.86588 | 15424 ft | 245 kts | 224° |
| 2026-05-05 23:41 | 65.42532 | -17.89455 | 15736 ft | 244 kts | 224° |
| 2026-05-05 23:41 | 65.41309 | -17.92348 | 16050 ft | 244 kts | 224° |
| 2026-05-05 23:41 | 65.40103 | -17.95193 | 16364 ft | 243 kts | 224° |
| 2026-05-05 23:41 | 65.38901 | -17.98026 | 16674 ft | 243 kts | 224° |
| 2026-05-05 23:42 | 65.37708 | -18.00834 | 16990 ft | 242 kts | 224° |
| 2026-05-05 23:42 | 65.36508 | -18.03654 | 17316 ft | 241 kts | 223° |
| 2026-05-05 23:42 | 65.35316 | -18.06450 | 17631 ft | 241 kts | 223° |
| 2026-05-05 23:42 | 65.34104 | -18.09286 | 17914 ft | 242 kts | 223° |
| 2026-05-05 23:43 | 65.32902 | -18.12099 | 18184 ft | 243 kts | 223° |
| 2026-05-05 23:43 | 65.31699 | -18.14907 | 18457 ft | 244 kts | 223° |
| 2026-05-05 23:43 | 65.30481 | -18.17750 | 18735 ft | 245 kts | 223° |
| 2026-05-05 23:43 | 65.29255 | -18.20607 | 19008 ft | 246 kts | 223° |
| 2026-05-05 23:44 | 65.28044 | -18.23427 | 19274 ft | 246 kts | 223° |
| 2026-05-05 23:44 | 65.26817 | -18.26275 | 19529 ft | 242 kts | 223° |
| 2026-05-05 23:44 | 65.25618 | -18.29063 | 19794 ft | 241 kts | 223° |
| 2026-05-05 23:44 | 65.24423 | -18.31839 | 20057 ft | 240 kts | 223° |
| 2026-05-05 23:45 | 65.23230 | -18.34599 | 20310 ft | 240 kts | 223° |
| 2026-05-05 23:45 | 65.22034 | -18.37363 | 20575 ft | 239 kts | 222° |
| 2026-05-05 23:45 | 65.20843 | -18.40110 | 20833 ft | 239 kts | 223° |
| 2026-05-05 23:45 | 65.19651 | -18.42855 | 21051 ft | 241 kts | 223° |
| 2026-05-05 23:46 | 65.18789 | -18.44839 | 21277 ft | 244 kts | 223° |
| 2026-05-05 23:46 | 65.17547 | -18.47694 | 21576 ft | 249 kts | 223° |
| 2026-05-05 23:46 | 65.16290 | -18.50583 | 21862 ft | 255 kts | 223° |
| 2026-05-05 23:46 | 65.15006 | -18.53528 | 22156 ft | 259 kts | 223° |
| 2026-05-05 23:47 | 65.13705 | -18.56510 | 22446 ft | 263 kts | 223° |
| 2026-05-05 23:47 | 65.12373 | -18.59557 | 22734 ft | 266 kts | 223° |
| 2026-05-05 23:47 | 65.11047 | -18.62588 | 23016 ft | 269 kts | 222° |
| 2026-05-05 23:47 | 65.09694 | -18.65677 | 23304 ft | 271 kts | 221° |
| 2026-05-05 23:48 | 65.08328 | -18.68788 | 23554 ft | 273 kts | 221° |
| 2026-05-05 23:48 | 65.06962 | -18.71894 | 23769 ft | 274 kts | 221° |
| 2026-05-05 23:48 | 65.05570 | -18.75050 | 23973 ft | 277 kts | 221° |
| 2026-05-05 23:48 | 65.04182 | -18.78196 | 24116 ft | 282 kts | 221° |
| 2026-05-05 23:49 | 65.02741 | -18.81451 | 24166 ft | 290 kts | 221° |
| 2026-05-05 23:49 | 65.01255 | -18.84809 | 24166 ft | 297 kts | 221° |
| 2026-05-05 23:49 | 64.99731 | -18.88247 | 24163 ft | 304 kts | 221° |
| 2026-05-05 23:49 | 64.98186 | -18.91727 | 24153 ft | 308 kts | 221° |
| 2026-05-05 23:50 | 64.96619 | -18.95254 | 24151 ft | 313 kts | 221° |
| 2026-05-05 23:50 | 64.95026 | -18.98832 | 24140 ft | 313 kts | 222° |
| 2026-05-05 23:50 | 64.93450 | -19.02366 | 24130 ft | 312 kts | 222° |
| 2026-05-05 23:50 | 64.91870 | -19.05901 | 24128 ft | 310 kts | 221° |
| 2026-05-05 23:51 | 64.90307 | -19.09398 | 24125 ft | 309 kts | 221° |
| 2026-05-05 23:51 | 64.88752 | -19.12861 | 24136 ft | 308 kts | 221° |
| 2026-05-05 23:51 | 64.87192 | -19.16330 | 24139 ft | 307 kts | 221° |
| 2026-05-05 23:51 | 64.85636 | -19.19788 | 24148 ft | 307 kts | 221° |
| 2026-05-05 23:52 | 64.84084 | -19.23228 | 24158 ft | 306 kts | 221° |
| 2026-05-05 23:52 | 64.82552 | -19.26620 | 24167 ft | 306 kts | 221° |
| 2026-05-05 23:52 | 64.81008 | -19.30034 | 24167 ft | 305 kts | 221° |
| 2026-05-05 23:52 | 64.79469 | -19.33429 | 24165 ft | 305 kts | 222° |
| 2026-05-05 23:53 | 64.77930 | -19.36823 | 24171 ft | 305 kts | 222° |
| 2026-05-05 23:53 | 64.76372 | -19.40253 | 24175 ft | 305 kts | 222° |
| 2026-05-05 23:53 | 64.74833 | -19.43633 | 24172 ft | 305 kts | 222° |
| 2026-05-05 23:53 | 64.73278 | -19.47041 | 24167 ft | 305 kts | 222° |
| 2026-05-05 23:54 | 64.71732 | -19.50428 | 24169 ft | 305 kts | 222° |
| 2026-05-05 23:54 | 64.70190 | -19.53803 | 24173 ft | 306 kts | 222° |
| 2026-05-05 23:54 | 64.68643 | -19.57174 | 24157 ft | 306 kts | 222° |
| 2026-05-05 23:54 | 64.67090 | -19.60560 | 24143 ft | 306 kts | 222° |
| 2026-05-05 23:55 | 64.65523 | -19.63968 | 24139 ft | 307 kts | 222° |
| 2026-05-05 23:55 | 64.63963 | -19.67353 | 24130 ft | 307 kts | 221° |
| 2026-05-05 23:55 | 64.62413 | -19.70715 | 24129 ft | 306 kts | 221° |
| 2026-05-05 23:55 | 64.60841 | -19.74116 | 24130 ft | 306 kts | 221° |
| 2026-05-05 23:56 | 64.59302 | -19.77445 | 24132 ft | 306 kts | 221° |
| 2026-05-05 23:56 | 64.57727 | -19.80836 | 24127 ft | 306 kts | 221° |
| 2026-05-05 23:56 | 64.56179 | -19.84174 | 24129 ft | 306 kts | 221° |
| 2026-05-05 23:56 | 64.54609 | -19.87550 | 24140 ft | 306 kts | 221° |
| 2026-05-05 23:57 | 64.53056 | -19.90885 | 24153 ft | 306 kts | 221° |
| 2026-05-05 23:57 | 64.51481 | -19.94259 | 24154 ft | 306 kts | 221° |
| 2026-05-05 23:57 | 64.49936 | -19.97565 | 24164 ft | 306 kts | 221° |
| 2026-05-05 23:57 | 64.48370 | -20.00908 | 24152 ft | 306 kts | 221° |
| 2026-05-05 23:58 | 64.46801 | -20.04258 | 24144 ft | 306 kts | 221° |
| 2026-05-05 23:58 | 64.45229 | -20.07604 | 24041 ft | 309 kts | 221° |
| 2026-05-05 23:58 | 64.43645 | -20.10974 | 23684 ft | 313 kts | 221° |
| 2026-05-05 23:58 | 64.42048 | -20.14361 | 23257 ft | 311 kts | 221° |
| 2026-05-05 23:59 | 64.40479 | -20.17686 | 22802 ft | 304 kts | 221° |
| 2026-05-05 23:59 | 64.38923 | -20.20981 | 22343 ft | 302 kts | 221° |
| 2026-05-05 23:59 | 64.37376 | -20.24242 | 21889 ft | 300 kts | 221° |
| 2026-05-05 23:59 | 64.35843 | -20.27474 | 21439 ft | 299 kts | 221° |
| 2026-05-06 00:00 | 64.34311 | -20.30701 | 20992 ft | 301 kts | 221° |
| 2026-05-06 00:00 | 64.32752 | -20.33979 | 20564 ft | 301 kts | 221° |
| 2026-05-06 00:00 | 64.31212 | -20.37219 | 20143 ft | 302 kts | 221° |
| 2026-05-06 00:00 | 64.29678 | -20.40433 | 19722 ft | 301 kts | 221° |
| 2026-05-06 00:01 | 64.28123 | -20.43681 | 19266 ft | 300 kts | 220° |
| 2026-05-06 00:01 | 64.26503 | -20.46708 | 18802 ft | 298 kts | 218° |
| 2026-05-06 00:01 | 64.24901 | -20.49666 | 18358 ft | 296 kts | 217° |
| 2026-05-06 00:01 | 64.23309 | -20.52602 | 17927 ft | 294 kts | 218° |
| 2026-05-06 00:02 | 64.21725 | -20.55517 | 17494 ft | 293 kts | 218° |
| 2026-05-06 00:02 | 64.20145 | -20.58425 | 17057 ft | 291 kts | 218° |
| 2026-05-06 00:02 | 64.18567 | -20.61322 | 16600 ft | 291 kts | 218° |
| 2026-05-06 00:02 | 64.17005 | -20.64190 | 16242 ft | 288 kts | 218° |
| 2026-05-06 00:03 | 64.15433 | -20.67071 | 15915 ft | 289 kts | 217° |
| 2026-05-06 00:03 | 64.13844 | -20.69978 | 15594 ft | 291 kts | 217° |
| 2026-05-06 00:03 | 64.12253 | -20.72883 | 15265 ft | 292 kts | 217° |
| 2026-05-06 00:03 | 64.10688 | -20.75740 | 14960 ft | 290 kts | 217° |
| 2026-05-06 00:04 | 64.09118 | -20.78603 | 14693 ft | 287 kts | 217° |
| 2026-05-06 00:04 | 64.07549 | -20.81454 | 14415 ft | 287 kts | 217° |
| 2026-05-06 00:04 | 64.06013 | -20.84247 | 14150 ft | 287 kts | 217° |
| 2026-05-06 00:04 | 64.04439 | -20.87104 | 13893 ft | 288 kts | 217° |
| 2026-05-06 00:05 | 64.01283 | -20.92815 | 13353 ft | 288 kts | 217° |
| 2026-05-06 00:05 | 63.99725 | -20.95627 | 13082 ft | 288 kts | 217° |
| 2026-05-06 00:05 | 63.98158 | -20.98453 | 12808 ft | 288 kts | 216° |
| 2026-05-06 00:06 | 63.96596 | -21.01265 | 12543 ft | 288 kts | 216° |
| 2026-05-06 00:06 | 63.95009 | -21.04117 | 12274 ft | 287 kts | 216° |
| 2026-05-06 00:06 | 63.93446 | -21.06918 | 12003 ft | 287 kts | 216° |
| 2026-05-06 00:06 | 63.91888 | -21.09712 | 11734 ft | 288 kts | 216° |
| 2026-05-06 00:07 | 63.90329 | -21.12499 | 11571 ft | 284 kts | 216° |
| 2026-05-06 00:07 | 63.88876 | -21.15571 | 11400 ft | 286 kts | 233° |
| 2026-05-06 00:07 | 63.88259 | -21.19824 | 11249 ft | 289 kts | 263° |
| 2026-05-06 00:07 | 63.87932 | -21.24368 | 11188 ft | 289 kts | 262° |
| 2026-05-06 00:08 | 63.87611 | -21.28818 | 11179 ft | 287 kts | 261° |
| 2026-05-06 00:08 | 63.87272 | -21.33284 | 11180 ft | 286 kts | 261° |
| 2026-05-06 00:08 | 63.86927 | -21.37718 | 11174 ft | 285 kts | 261° |
| 2026-05-06 00:08 | 63.86578 | -21.42144 | 11175 ft | 284 kts | 261° |
| 2026-05-06 00:09 | 63.86230 | -21.46538 | 10951 ft | 290 kts | 261° |
| 2026-05-06 00:09 | 63.85866 | -21.51102 | 10637 ft | 291 kts | 261° |
| 2026-05-06 00:09 | 63.85502 | -21.55587 | 10335 ft | 286 kts | 261° |
| 2026-05-06 00:09 | 63.85142 | -21.59996 | 10033 ft | 283 kts | 261° |
| 2026-05-06 00:10 | 63.84790 | -21.64346 | 9744 ft | 282 kts | 261° |
| 2026-05-06 00:10 | 63.84428 | -21.68808 | 9437 ft | 281 kts | 260° |
| 2026-05-06 00:10 | 63.84074 | -21.73151 | 9149 ft | 282 kts | 260° |
| 2026-05-06 00:10 | 63.83715 | -21.77510 | 8868 ft | 282 kts | 260° |
| 2026-05-06 00:11 | 63.83357 | -21.81863 | 8593 ft | 283 kts | 260° |
| 2026-05-06 00:11 | 63.82997 | -21.86238 | 8331 ft | 284 kts | 260° |
| 2026-05-06 00:11 | 63.82633 | -21.90629 | 8059 ft | 284 kts | 260° |
| 2026-05-06 00:11 | 63.82266 | -21.95032 | 7789 ft | 285 kts | 260° |
| 2026-05-06 00:12 | 63.81900 | -21.99424 | 7521 ft | 285 kts | 260° |
| 2026-05-06 00:12 | 63.81526 | -22.03872 | 7259 ft | 285 kts | 260° |
| 2026-05-06 00:12 | 63.81155 | -22.08261 | 6997 ft | 285 kts | 260° |
| 2026-05-06 00:12 | 63.80639 | -22.12528 | 6902 ft | 279 kts | 250° |
| 2026-05-06 00:13 | 63.80010 | -22.16660 | 6760 ft | 277 kts | 251° |
| 2026-05-06 00:13 | 63.79382 | -22.20773 | 6628 ft | 275 kts | 252° |
| 2026-05-06 00:13 | 63.78767 | -22.24824 | 6389 ft | 275 kts | 252° |
| 2026-05-06 00:13 | 63.78149 | -22.28897 | 6124 ft | 273 kts | 252° |
| 2026-05-06 00:14 | 63.77540 | -22.32912 | 5844 ft | 269 kts | 252° |
| 2026-05-06 00:14 | 63.76968 | -22.36825 | 5445 ft | 249 kts | 258° |
| 2026-05-06 00:14 | 63.77113 | -22.40467 | 5002 ft | 226 kts | 297° |
| 2026-05-06 00:14 | 63.77659 | -22.43710 | 4582 ft | 216 kts | 297° |
| 2026-05-06 00:15 | 63.78174 | -22.46794 | 4132 ft | 210 kts | 297° |
| 2026-05-06 00:15 | 63.78677 | -22.49867 | 3682 ft | 205 kts | 298° |
| 2026-05-06 00:15 | 63.79160 | -22.52852 | 3259 ft | 200 kts | 298° |
| 2026-05-06 00:15 | 63.79633 | -22.55776 | 2892 ft | 193 kts | 298° |
| 2026-05-06 00:16 | 63.80088 | -22.58525 | 2610 ft | 181 kts | 304° |
| 2026-05-06 00:16 | 63.80891 | -22.60295 | 2349 ft | 151 kts | 349° |
| 2026-05-06 00:16 | 63.81861 | -22.60514 | 2134 ft | 134 kts | 9° |
| 2026-05-06 00:16 | 63.82787 | -22.60518 | 1911 ft | 131 kts | 7° |
| 2026-05-06 00:17 | 63.83670 | -22.60529 | 1767 ft | 124 kts | 8° |
| 2026-05-06 00:17 | 63.84487 | -22.60543 | 1774 ft | 114 kts | 8° |
| 2026-05-06 00:17 | 63.85306 | -22.60527 | 1790 ft | 121 kts | 9° |
| 2026-05-06 00:17 | 63.86165 | -22.60509 | 1771 ft | 126 kts | 8° |
| 2026-05-06 00:18 | 63.87049 | -22.60509 | 1771 ft | 129 kts | 8° |
| 2026-05-06 00:18 | 63.87931 | -22.60522 | 1750 ft | 119 kts | 8° |
| 2026-05-06 00:18 | 63.88665 | -22.60543 | 1753 ft | 95 kts | 10° |
| 2026-05-06 00:18 | 63.89322 | -22.60526 | 1638 ft | 97 kts | 11° |
| 2026-05-06 00:19 | 63.90028 | -22.60509 | 1502 ft | 103 kts | 9° |
| 2026-05-06 00:19 | 63.90750 | -22.60509 | 1355 ft | 106 kts | 9° |
| 2026-05-06 00:19 | 63.91502 | -22.60513 | 1196 ft | 108 kts | 7° |
| 2026-05-06 00:19 | 63.92223 | -22.60522 | 1060 ft | 100 kts | 8° |
| 2026-05-06 00:20 | 63.92903 | -22.60500 | 910 ft | 97 kts | 8° |
| 2026-05-06 00:20 | 63.93567 | -22.60529 | 742 ft | 91 kts | 5° |
| 2026-05-06 00:20 | 63.94173 | -22.60569 | 627 ft | 84 kts | 8° |
| 2026-05-06 00:20 | 63.94745 | -22.60566 | 503 ft | 79 kts | 7° |
| 2026-05-06 00:21 | 63.95285 | -22.60556 | 414 ft | 80 kts | 7° |
| 2026-05-06 00:21 | 63.95838 | -22.60555 | 316 ft | 78 kts | 8° |
| 2026-05-06 00:21 | 63.96381 | -22.60551 | 204 ft | 77 kts | 7° |
| 2026-05-06 00:21 | 63.96902 | -22.60539 | 150 ft | 66 kts | 1° |
| 2026-05-06 00:22 | 63.97191 | -22.60544 | 158 ft | 26 kts | 0° |
| 2026-05-06 00:22 | 63.97348 | -22.60547 | 163 ft | 9 kts | 2° |
| 2026-05-06 00:22 | 63.97401 | -22.60486 | 164 ft | 11 kts | 86° |
| 2026-05-06 00:22 | 63.97372 | -22.60322 | 164 ft | 0 kts | 113° |
| 2026-05-06 00:24 | 63.97369 | -22.60307 | 164 ft | 5 kts | 111° |
| 2026-05-06 00:24 | 63.97342 | -22.60147 | 165 ft | 15 kts | 113° |
| 2026-05-06 00:24 | 63.97304 | -22.59942 | 166 ft | 5 kts | 113° |
| 2026-05-06 00:24 | 63.97309 | -22.59867 | 167 ft | 8 kts | 34° |
| 2026-05-06 00:25 | 63.97354 | -22.59821 | 168 ft | 8 kts | 24° |
| 2026-05-06 00:25 | 63.97398 | -22.59790 | 170 ft | 7 kts | 5° |
| 2026-05-06 00:25 | 63.97450 | -22.59788 | 171 ft | 7 kts | 2° |
| 2026-05-06 00:25 | 63.97478 | -22.59772 | 172 ft | 4 kts | 57° |
| 2026-05-06 00:26 | 63.97481 | -22.59719 | 173 ft | 2 kts | 91° |
| 2026-05-06 00:26 | 63.97481 | -22.59708 | 173 ft | 0 kts | 91° |
| 2026-05-06 00:26 | 63.97481 | -22.59703 | 173 ft | 0 kts | 91° |